Time;durP1;ratioP1;P1;durP2;ratioP2;P2;SDS_P1;SDS_P2;PMS_P1;PMS_P2;Temp;Humidity;BMP_temperature;BMP_pressure;BME280_temperature;BME280_humidity;BME280_pressure;Samples;Min_cycle;Max_cycle;Signal;HPM_P1;HPM_P2
2023/10/31 00:00:11;;;;;;;13.43;2.20;;;;;;;22.26;70.41;95528.59;5113848;28;20020;-32
2023/10/31 00:02:36;;;;;;;13.52;2.67;;;;;;;22.21;70.59;95534.97;5113720;28;20046;-31
2023/10/31 00:05:02;;;;;;;10.00;2.17;;;;;;;22.16;70.22;95533.03;5103471;28;20470;-31
2023/10/31 00:07:27;;;;;;;7.47;2.13;;;;;;;22.16;70.76;95553.09;5108516;28;20012;-32
2023/10/31 00:09:52;;;;;;;15.30;2.45;;;;;;;22.28;70.60;95550.91;5105702;28;20027;-31
2023/10/31 00:12:18;;;;;;;8.40;1.92;;;;;;;22.19;70.65;95545.78;5113570;28;20076;-31
2023/10/31 00:14:43;;;;;;;16.10;2.25;;;;;;;21.94;70.97;95549.88;5106431;28;20027;-31
2023/10/31 00:17:09;;;;;;;13.57;2.10;;;;;;;22.17;70.44;95548.31;5105391;27;20027;-31
2023/10/31 00:19:34;;;;;;;14.40;2.20;;;;;;;22.19;71.02;95556.84;5113316;28;20020;-31
2023/10/31 00:22:00;;;;;;;8.13;1.70;;;;;;;22.10;70.42;95554.47;5098443;28;20024;-31
2023/10/31 00:24:25;;;;;;;11.77;3.05;;;;;;;22.11;70.70;95545.66;5105930;28;20019;-31
2023/10/31 00:26:51;;;;;;;14.88;2.00;;;;;;;22.13;70.84;95556.19;5107670;28;20020;-32
2023/10/31 00:29:17;;;;;;;8.00;1.92;;;;;;;22.08;70.83;95548.72;5103799;28;20024;-31
2023/10/31 00:31:42;;;;;;;10.93;2.47;;;;;;;22.18;70.45;95533.25;5102419;28;20031;-31
2023/10/31 00:34:08;;;;;;;10.85;2.25;;;;;;;22.26;69.28;95525.84;5109980;28;20024;-31
2023/10/31 00:36:34;;;;;;;14.65;2.13;;;;;;;22.18;69.93;95536.75;5102768;28;20661;-31
2023/10/31 00:38:59;;;;;;;11.75;1.88;;;;;;;22.09;70.25;95541.91;5102883;28;20118;-31
2023/10/31 00:41:25;;;;;;;11.18;1.80;;;;;;;22.09;70.08;95544.69;5102871;28;20020;-31
2023/10/31 00:43:50;;;;;;;8.93;1.70;;;;;;;21.98;70.06;95547.56;5106028;28;20467;-31
2023/10/31 00:46:16;;;;;;;8.15;1.55;;;;;;;22.05;69.46;95547.00;5105889;28;20584;-32
2023/10/31 00:48:41;;;;;;;11.57;2.47;;;;;;;22.11;69.26;95550.44;5111566;28;20114;-31
2023/10/31 00:51:06;;;;;;;7.75;1.73;;;;;;;21.95;70.21;95554.88;5105617;28;20015;-31
2023/10/31 00:53:32;;;;;;;9.52;1.70;;;;;;;22.03;69.30;95557.81;5111822;28;20047;-31
2023/10/31 00:55:58;;;;;;;9.68;1.83;;;;;;;21.66;70.07;95558.50;5105152;28;20019;-31
2023/10/31 00:58:23;;;;;;;11.57;1.70;;;;;;;22.09;68.30;95569.53;5112547;28;20099;-31
2023/10/31 01:00:49;;;;;;;8.55;1.98;;;;;;;22.15;67.77;95556.38;5111487;28;20433;-31
2023/10/31 01:03:14;;;;;;;10.02;1.50;;;;;;;21.98;67.88;95569.66;5108235;27;20052;-31
2023/10/31 01:05:40;;;;;;;10.73;1.95;;;;;;;21.84;68.11;95560.56;5109476;28;20023;-32
2023/10/31 01:08:05;;;;;;;8.80;1.58;;;;;;;22.14;66.86;95561.16;5108648;28;20047;-31
2023/10/31 01:10:30;;;;;;;6.18;1.23;;;;;;;21.86;66.96;95558.78;5107600;28;20038;-31
2023/10/31 01:12:56;;;;;;;9.00;1.80;;;;;;;21.95;66.39;95548.63;5110971;28;20386;-32
2023/10/31 01:15:21;;;;;;;7.07;1.30;;;;;;;21.84;66.08;95561.31;5112343;28;20023;-31
2023/10/31 01:17:47;;;;;;;6.10;1.38;;;;;;;21.96;64.86;95563.91;5112288;28;20043;-31
2023/10/31 01:20:13;;;;;;;7.35;1.52;;;;;;;21.99;64.96;95577.44;5104310;28;20027;-32
2023/10/31 01:22:38;;;;;;;7.85;1.40;;;;;;;22.09;64.30;95583.34;5104893;28;20019;-31
2023/10/31 01:25:04;;;;;;;7.47;1.75;;;;;;;21.90;64.96;95590.84;5104457;28;20020;-31
2023/10/31 01:27:30;;;;;;;5.68;1.45;;;;;;;22.14;63.95;95590.78;5104634;28;20024;-31
2023/10/31 01:29:55;;;;;;;5.70;1.33;;;;;;;21.94;64.36;95594.78;5105205;28;20019;-31
2023/10/31 01:32:20;;;;;;;8.98;1.50;;;;;;;21.88;63.66;95586.56;5097131;28;20026;-33
2023/10/31 01:34:46;;;;;;;8.27;1.60;;;;;;;21.95;63.54;95587.25;5111896;28;20015;-31
2023/10/31 01:37:13;;;;;;;8.93;1.58;;;;;;;21.95;63.60;95592.78;5111740;28;20024;-31
2023/10/31 01:39:39;;;;;;;8.35;2.30;;;;;;;22.00;63.44;95600.28;5108601;28;20016;-32
2023/10/31 01:42:04;;;;;;;8.13;1.67;;;;;;;21.82;63.59;95604.47;5107062;28;20486;-31
2023/10/31 01:44:30;;;;;;;8.93;1.60;;;;;;;21.88;63.59;95609.94;5110041;28;20019;-32
2023/10/31 01:46:55;;;;;;;9.43;1.60;;;;;;;21.88;63.81;95603.13;5105313;28;20023;-31
2023/10/31 01:49:21;;;;;;;7.75;1.75;;;;;;;21.81;64.31;95605.75;5111597;28;20027;-32
2023/10/31 01:51:48;;;;;;;9.25;1.80;;;;;;;21.58;64.55;95602.50;5103949;28;20099;-31
2023/10/31 01:54:14;;;;;;;7.35;1.38;;;;;;;21.86;64.12;95608.47;5111574;28;20040;-32
2023/10/31 01:56:40;;;;;;;9.73;1.42;;;;;;;21.68;64.85;95609.16;5103448;28;20019;-32
2023/10/31 01:59:06;;;;;;;10.52;1.55;;;;;;;21.66;64.79;95606.16;5111760;28;20089;-32
2023/10/31 02:01:35;;;;;;;9.15;1.83;;;;;;;21.86;64.29;95596.66;5104868;28;20016;-31
2023/10/31 02:04:02;;;;;;;8.07;1.88;;;;;;;21.77;64.94;95597.00;5103517;28;20036;-31
2023/10/31 02:06:30;;;;;;;11.35;2.13;;;;;;;21.76;65.31;95601.06;5104590;28;20054;-31
2023/10/31 02:08:55;;;;;;;12.15;2.90;;;;;;;21.73;65.31;95605.59;5103542;28;20077;-31
2023/10/31 02:11:21;;;;;;;10.27;2.00;;;;;;;21.74;64.97;95601.56;5104881;28;20028;-32
2023/10/31 02:13:46;;;;;;;14.77;2.20;;;;;;;21.82;65.10;95601.72;5104618;28;20024;-31
2023/10/31 02:16:12;;;;;;;8.63;1.92;;;;;;;21.82;64.87;95596.94;5110445;28;20024;-31
2023/10/31 02:18:37;;;;;;;6.63;1.38;;;;;;;21.78;65.18;95596.50;5107203;28;20158;-32
2023/10/31 02:21:03;;;;;;;12.20;2.38;;;;;;;21.91;64.75;95587.56;5112322;28;20051;-31
2023/10/31 02:23:28;;;;;;;7.78;1.70;;;;;;;21.92;65.24;95583.53;5108640;28;20468;-32
2023/10/31 02:25:54;;;;;;;12.73;1.83;;;;;;;21.87;65.30;95578.84;5115856;28;20110;-31
2023/10/31 02:28:20;;;;;;;10.68;2.45;;;;;;;21.93;65.14;95590.53;5106133;28;20042;-31
2023/10/31 02:30:45;;;;;;;9.80;1.63;;;;;;;21.88;65.33;95589.34;5109764;28;20378;-31
2023/10/31 02:33:11;;;;;;;10.63;1.98;;;;;;;21.85;65.22;95584.88;5107932;28;20505;-31
2023/10/31 02:35:36;;;;;;;8.57;1.77;;;;;;;21.86;65.19;95583.63;5105434;28;20036;-31
2023/10/31 02:38:02;;;;;;;6.80;1.73;;;;;;;21.90;64.91;95593.59;5104130;28;20043;-31
2023/10/31 02:40:27;;;;;;;8.82;1.63;;;;;;;21.87;65.05;95581.59;5107089;28;20027;-31
2023/10/31 02:42:53;;;;;;;10.75;1.85;;;;;;;21.79;65.28;95583.44;5108399;28;20039;-31
2023/10/31 02:45:18;;;;;;;11.70;2.00;;;;;;;21.56;65.89;95580.22;5101148;28;20028;-31
2023/10/31 02:47:44;;;;;;;10.98;1.58;;;;;;;21.77;64.70;95583.97;5114241;28;20046;-31
2023/10/31 02:50:10;;;;;;;9.95;1.90;;;;;;;21.82;64.74;95580.41;5110169;27;20105;-32
2023/10/31 02:52:36;;;;;;;9.48;1.98;;;;;;;21.74;65.06;95578.75;5111983;28;20045;-32
2023/10/31 02:55:01;;;;;;;14.20;1.88;;;;;;;21.86;64.62;95585.63;5115084;28;20024;-32
2023/10/31 02:57:27;;;;;;;8.05;1.52;;;;;;;21.80;64.74;95582.94;5115165;28;20026;-32
2023/10/31 02:59:53;;;;;;;7.85;1.65;;;;;;;21.65;65.32;95582.59;5112645;28;20023;-31
2023/10/31 03:02:18;;;;;;;8.80;1.80;;;;;;;21.67;65.34;95588.34;5109318;28;20031;-31
2023/10/31 03:04:43;;;;;;;7.75;1.70;;;;;;;21.64;65.37;95594.91;5106672;28;20077;-31
2023/10/31 03:07:09;;;;;;;10.48;1.88;;;;;;;21.71;65.58;95599.09;5114442;28;20445;-31
2023/10/31 03:09:34;;;;;;;16.90;2.63;;;;;;;21.68;65.21;95595.38;5107555;28;20061;-31
2023/10/31 03:12:00;;;;;;;5.63;1.88;;;;;;;21.70;65.14;95584.56;5106815;28;20483;-31
2023/10/31 03:14:25;;;;;;;7.97;1.60;;;;;;;21.62;65.42;95580.91;5107537;28;20019;-31
2023/10/31 03:16:51;;;;;;;11.32;1.70;;;;;;;21.64;65.37;95588.63;5107516;28;20413;-31
2023/10/31 03:19:16;;;;;;;9.60;2.00;;;;;;;21.61;65.62;95581.41;5106161;28;20020;-31
2023/10/31 03:21:42;;;;;;;9.73;1.67;;;;;;;21.78;64.85;95568.91;5109157;28;20040;-32
2023/10/31 03:24:07;;;;;;;8.57;1.60;;;;;;;21.80;64.74;95563.59;5105180;28;20027;-31
2023/10/31 03:26:33;;;;;;;9.70;1.88;;;;;;;21.74;64.83;95562.94;5104360;28;20012;-31
2023/10/31 03:28:58;;;;;;;7.10;1.58;;;;;;;21.63;65.08;95568.59;5104273;28;20081;-31
2023/10/31 03:31:24;;;;;;;12.45;1.88;;;;;;;21.80;64.38;95566.38;5110492;28;20081;-32
2023/10/31 03:33:50;;;;;;;8.07;1.98;;;;;;;21.71;64.88;95563.97;5104282;28;20028;-31
2023/10/31 03:36:15;;;;;;;12.18;2.20;;;;;;;21.66;64.83;95564.03;5104560;28;20452;-31
2023/10/31 03:38:41;;;;;;;9.15;1.92;;;;;;;21.78;64.89;95566.13;5106790;28;20032;-32
2023/10/31 03:41:07;;;;;;;8.77;2.22;;;;;;;21.70;65.10;95556.22;5106915;28;20340;-31
2023/10/31 03:43:32;;;;;;;8.15;1.95;;;;;;;21.64;64.93;95559.03;5106476;28;20019;-31
2023/10/31 03:45:58;;;;;;;10.05;1.65;;;;;;;21.46;65.34;95555.00;5106823;28;20069;-31
2023/10/31 03:48:23;;;;;;;6.55;1.40;;;;;;;21.66;64.81;95577.84;5113764;27;20072;-31
2023/10/31 03:50:50;;;;;;;10.70;1.88;;;;;;;21.69;64.50;95569.25;5098822;28;20020;-32
2023/10/31 03:53:15;;;;;;;8.63;1.45;;;;;;;21.57;65.21;95569.91;5113754;27;20039;-31
2023/10/31 03:55:41;;;;;;;15.35;2.10;;;;;;;21.52;65.15;95574.22;5105960;28;20031;-31
2023/10/31 03:58:07;;;;;;;10.48;2.17;;;;;;;21.44;65.63;95568.56;5113982;28;20482;-31
2023/10/31 04:00:33;;;;;;;11.02;2.13;;;;;;;21.38;65.32;95575.41;5106987;28;20475;-31
2023/10/31 04:02:58;;;;;;;8.40;1.90;;;;;;;21.53;65.30;95570.19;5110603;28;20039;-32
2023/10/31 04:05:24;;;;;;;10.80;1.90;;;;;;;21.55;65.06;95577.97;5108416;28;20016;-31
2023/10/31 04:07:49;;;;;;;10.07;1.95;;;;;;;21.44;65.59;95581.59;5112806;28;20539;-31
2023/10/31 04:10:16;;;;;;;9.98;2.47;;;;;;;21.62;64.68;95578.16;5106607;28;20019;-31
2023/10/31 04:12:42;;;;;;;9.60;1.83;;;;;;;21.59;64.73;95568.13;5113641;28;20094;-31
2023/10/31 04:15:08;;;;;;;9.43;1.80;;;;;;;21.76;64.33;95570.69;5104622;28;20055;-32
2023/10/31 04:17:34;;;;;;;10.70;2.08;;;;;;;21.68;64.56;95567.03;5108065;28;20034;-31
2023/10/31 04:19:59;;;;;;;10.80;1.73;;;;;;;21.49;64.92;95578.03;5105637;28;20098;-32
2023/10/31 04:22:25;;;;;;;4.57;1.67;;;;;;;21.41;65.44;95583.38;5105779;28;20024;-31
2023/10/31 04:24:50;;;;;;;15.18;2.63;;;;;;;21.41;65.62;95577.88;5105218;28;20364;-31
2023/10/31 04:27:17;;;;;;;11.05;1.85;;;;;;;21.56;65.07;95579.47;5098238;28;20028;-32
2023/10/31 04:29:42;;;;;;;8.90;2.00;;;;;;;21.62;65.01;95574.63;5113119;28;20054;-32
2023/10/31 04:32:07;;;;;;;11.52;2.13;;;;;;;21.49;65.16;95565.00;5106013;28;20471;-31
2023/10/31 04:34:33;;;;;;;10.35;2.70;;;;;;;21.56;65.11;95563.66;5112193;28;20460;-31
2023/10/31 04:36:58;;;;;;;8.60;1.83;;;;;;;21.69;65.02;95560.25;5107697;28;20020;-31
2023/10/31 04:39:24;;;;;;;13.05;2.42;;;;;;;21.62;65.08;95563.59;5102779;28;20072;-31
2023/10/31 04:41:49;;;;;;;9.75;2.00;;;;;;;21.49;65.29;95575.28;5102988;28;20052;-32
2023/10/31 04:44:16;;;;;;;10.05;2.45;;;;;;;21.55;65.28;95581.47;5109634;28;20026;-32
2023/10/31 04:46:42;;;;;;;8.40;1.90;;;;;;;21.51;65.33;95575.53;5102795;28;20023;-31
2023/10/31 04:49:07;;;;;;;10.68;1.95;;;;;;;21.53;65.33;95570.19;5106216;28;20030;-32
2023/10/31 04:51:34;;;;;;;13.07;2.55;;;;;;;21.45;65.67;95572.81;5104564;28;20015;-31
2023/10/31 04:54:00;;;;;;;10.18;2.00;;;;;;;21.61;65.16;95562.09;5112766;28;20384;-31
2023/10/31 04:56:25;;;;;;;9.82;1.80;;;;;;;21.77;64.24;95570.16;5112850;28;20027;-31
2023/10/31 04:58:50;;;;;;;10.80;2.58;;;;;;;21.64;64.53;95570.06;5111624;28;20023;-31
2023/10/31 05:01:16;;;;;;;14.45;2.00;;;;;;;21.58;64.87;95577.69;5112606;28;20072;-31
2023/10/31 05:03:41;;;;;;;10.40;2.13;;;;;;;21.73;64.29;95582.78;5104557;28;20028;-31
2023/10/31 05:06:07;;;;;;;9.00;1.67;;;;;;;21.56;64.30;95580.22;5111849;28;20020;-31
2023/10/31 05:08:33;;;;;;;10.65;2.10;;;;;;;21.62;64.22;95583.66;5106740;28;20032;-31
2023/10/31 05:10:59;;;;;;;8.02;2.08;;;;;;;21.54;64.37;95588.25;5110335;28;20379;-31
2023/10/31 05:13:24;;;;;;;9.07;2.33;;;;;;;21.45;64.60;95591.38;5108602;28;20042;-32
2023/10/31 05:15:50;;;;;;;7.68;2.15;;;;;;;21.59;64.23;95590.22;5108849;28;20466;-32
2023/10/31 05:18:17;;;;;;;10.27;2.55;;;;;;;21.47;64.14;95591.59;5102138;28;20026;-31
2023/10/31 05:20:42;;;;;;;5.25;1.30;;;;;;;21.34;64.61;95594.25;5107436;28;20524;-31
2023/10/31 05:23:08;;;;;;;7.50;1.92;;;;;;;21.57;63.95;95601.03;5103661;28;20031;-31
2023/10/31 05:25:34;;;;;;;10.90;1.52;;;;;;;21.44;64.30;95604.41;5105451;28;20026;-31
2023/10/31 05:27:59;;;;;;;6.20;1.30;;;;;;;21.49;63.95;95617.41;5105059;28;20023;-31
2023/10/31 05:30:25;;;;;;;12.30;1.77;;;;;;;21.47;64.27;95611.66;5103919;28;20024;-31
2023/10/31 05:32:51;;;;;;;6.35;1.60;;;;;;;21.67;63.23;95610.44;5111954;28;20050;-31
2023/10/31 05:35:17;;;;;;;8.85;1.55;;;;;;;21.51;63.79;95605.88;5111071;28;20027;-31
2023/10/31 05:37:43;;;;;;;9.48;1.35;;;;;;;21.52;63.88;95610.09;5105127;28;20032;-31
2023/10/31 05:40:09;;;;;;;11.32;1.52;;;;;;;21.61;63.41;95593.22;5110668;28;20011;-31
2023/10/31 05:42:35;;;;;;;11.02;1.85;;;;;;;21.43;63.80;95596.66;5103941;28;20031;-32
2023/10/31 05:45:00;;;;;;;10.40;1.80;;;;;;;21.49;63.87;95591.84;5110515;28;20488;-32
2023/10/31 05:47:26;;;;;;;9.57;1.58;;;;;;;21.52;63.79;95596.28;5104212;28;20023;-31
2023/10/31 05:49:51;;;;;;;10.27;1.88;;;;;;;21.50;63.78;95596.09;5104367;28;20523;-31
2023/10/31 05:52:17;;;;;;;7.38;1.63;;;;;;;21.51;63.47;95587.28;5111775;28;20042;-31
2023/10/31 05:54:42;;;;;;;5.47;1.52;;;;;;;21.59;63.56;95604.00;5109827;28;20052;-32
2023/10/31 05:57:08;;;;;;;11.35;1.77;;;;;;;21.54;63.47;95613.09;5111713;28;20019;-31
2023/10/31 05:59:33;;;;;;;14.68;2.35;;;;;;;21.43;64.14;95604.94;5111349;28;20012;-31
2023/10/31 06:01:59;;;;;;;13.10;2.58;;;;;;;21.55;63.85;95613.84;5110728;28;20118;-32
2023/10/31 06:04:27;;;;;;;6.55;1.73;;;;;;;21.48;63.97;95610.41;5103924;28;20064;-31
2023/10/31 06:06:52;;;;;;;13.98;2.38;;;;;;;21.47;63.83;95610.91;5110547;28;20356;-31
2023/10/31 06:09:18;;;;;;;9.00;2.22;;;;;;;21.19;64.67;95615.97;5104687;28;20022;-31
2023/10/31 06:11:44;;;;;;;12.45;3.15;;;;;;;21.25;64.02;95624.94;5111584;28;20134;-32
2023/10/31 06:14:13;;;;;;;11.30;1.92;;;;;;;21.26;63.96;95632.69;5103654;28;20024;-31
2023/10/31 06:16:45;;;;;;;9.82;1.75;;;;;;;21.29;63.67;95623.38;5111492;28;20023;-31
2023/10/31 06:19:11;;;;;;;11.60;2.13;;;;;;;21.47;63.23;95632.97;5103476;28;20405;-31
2023/10/31 06:21:36;;;;;;;15.60;2.50;;;;;;;21.34;63.29;95630.84;5106735;28;20115;-31
2023/10/31 06:24:03;;;;;;;10.35;2.35;;;;;;;21.29;63.25;95641.94;5101306;28;20491;-31
2023/10/31 06:26:28;;;;;;;10.73;1.75;;;;;;;21.19;63.48;95643.53;5108751;28;20107;-31
2023/10/31 06:28:54;;;;;;;14.57;2.05;;;;;;;21.24;63.31;95640.75;5101258;28;20375;-31
2023/10/31 06:31:20;;;;;;;11.55;2.13;;;;;;;21.42;62.60;95647.56;5107847;28;20057;-31
2023/10/31 06:33:45;;;;;;;7.90;1.75;;;;;;;21.47;62.82;95646.78;5111217;28;20019;-31
2023/10/31 06:36:11;;;;;;;13.10;1.75;;;;;;;21.40;62.99;95664.63;5110860;28;20027;-31
2023/10/31 06:38:36;;;;;;;8.13;1.70;;;;;;;21.28;63.21;95668.00;5108528;28;20032;-31
2023/10/31 06:41:02;;;;;;;8.55;1.95;;;;;;;21.45;62.96;95674.13;5106542;28;20490;-33
2023/10/31 06:43:28;;;;;;;14.63;2.75;;;;;;;21.35;63.56;95681.25;5110169;28;20035;-31
2023/10/31 06:45:53;;;;;;;9.60;1.67;;;;;;;21.34;63.20;95669.47;5096941;28;20018;-31
2023/10/31 06:48:19;;;;;;;13.55;2.40;;;;;;;21.37;63.26;95676.72;5111137;28;20107;-31
2023/10/31 06:50:44;;;;;;;13.50;2.35;;;;;;;21.49;63.10;95683.63;5103240;28;20429;-31
2023/10/31 06:53:09;;;;;;;16.75;2.47;;;;;;;21.33;63.31;95683.78;5111141;28;20086;-31
2023/10/31 06:55:35;;;;;;;12.65;1.88;;;;;;;21.28;63.37;95690.06;5110481;28;20104;-31
2023/10/31 06:58:00;;;;;;;14.07;2.20;;;;;;;21.23;63.29;95690.88;5110922;28;20045;-31
2023/10/31 07:00:27;;;;;;;10.52;2.17;;;;;;;21.43;62.65;95707.00;5111133;28;20377;-31
2023/10/31 07:02:52;;;;;;;12.60;2.28;;;;;;;21.25;63.56;95705.66;5108574;28;20019;-31
2023/10/31 07:05:20;;;;;;;10.10;2.22;;;;;;;21.34;62.95;95712.84;5105223;28;20011;-31
2023/10/31 07:07:46;;;;;;;9.20;1.98;;;;;;;21.36;62.59;95713.09;5114117;28;20062;-31
2023/10/31 07:10:11;;;;;;;8.20;1.60;;;;;;;21.31;62.67;95716.63;5107558;28;20031;-31
2023/10/31 07:12:37;;;;;;;11.18;1.67;;;;;;;21.27;62.72;95729.94;5114763;28;20061;-31
2023/10/31 07:15:03;;;;;;;13.40;2.03;;;;;;;21.26;62.44;95734.75;5106611;28;20024;-31
2023/10/31 07:17:28;;;;;;;10.82;1.80;;;;;;;21.30;62.23;95734.44;5114434;28;20037;-31
2023/10/31 07:19:54;;;;;;;10.23;3.30;;;;;;;21.13;62.18;95731.81;5107566;28;20475;-32
2023/10/31 07:22:19;;;;;;;12.13;2.20;;;;;;;21.22;61.33;95739.03;5106288;28;20043;-31
2023/10/31 07:24:45;;;;;;;11.15;1.92;;;;;;;21.21;61.26;95735.53;5114628;28;20077;-31
2023/10/31 07:27:10;;;;;;;9.98;1.73;;;;;;;21.33;60.76;95733.41;5106098;28;20391;-31
2023/10/31 07:29:40;;;;;;;18.88;2.60;;;;;;;21.46;60.49;95744.59;5114328;28;20027;-31
2023/10/31 07:32:05;;;;;;;15.07;1.80;;;;;;;21.22;60.19;95752.81;5107506;28;20395;-32
2023/10/31 07:34:31;;;;;;;11.35;1.83;;;;;;;21.25;60.00;95760.81;5106359;28;20019;-31
2023/10/31 07:36:56;;;;;;;14.85;2.58;;;;;;;21.36;59.82;95743.44;5114516;28;20454;-31
2023/10/31 07:39:22;;;;;;;10.32;1.38;;;;;;;21.46;59.45;95761.88;5113067;28;20023;-31
2023/10/31 07:41:48;;;;;;;8.93;2.35;;;;;;;21.42;60.13;95774.47;5114295;28;20462;-31
2023/10/31 07:44:13;;;;;;;11.18;2.08;;;;;;;21.32;59.85;95781.56;5107788;28;20077;-31
2023/10/31 07:46:39;;;;;;;11.25;1.58;;;;;;;21.16;60.62;95781.13;5105176;28;20474;-31
2023/10/31 07:49:05;;;;;;;7.28;1.40;;;;;;;21.19;60.15;95795.94;5113935;27;20024;-32
2023/10/31 07:51:31;;;;;;;7.90;1.60;;;;;;;21.31;60.13;95789.09;5106465;28;20018;-31
2023/10/31 07:53:58;;;;;;;9.95;1.83;;;;;;;21.15;60.37;95800.94;5113627;28;20058;-31
2023/10/31 07:56:25;;;;;;;12.52;1.60;;;;;;;21.28;59.76;95803.16;5114014;28;20015;-31
2023/10/31 07:58:51;;;;;;;10.88;2.22;;;;;;;21.36;59.62;95807.63;5112778;28;20023;-32
2023/10/31 08:01:21;;;;;;;9.10;1.55;;;;;;;21.27;59.97;95815.44;5113771;28;20470;-31
2023/10/31 08:03:47;;;;;;;8.25;1.52;;;;;;;21.24;59.62;95808.97;5105271;28;20399;-31
2023/10/31 08:06:13;;;;;;;8.48;1.67;;;;;;;21.39;59.44;95801.06;5113771;28;20020;-31
2023/10/31 08:08:38;;;;;;;10.15;2.08;;;;;;;21.26;59.45;95827.75;5107088;28;20016;-32
2023/10/31 08:11:08;;;;;;;9.40;1.75;;;;;;;21.36;59.76;95826.16;5112047;28;20421;-31
2023/10/31 08:13:33;;;;;;;11.57;1.40;;;;;;;21.26;59.75;95828.50;5108523;28;20055;-31
2023/10/31 08:15:58;;;;;;;9.98;1.50;;;;;;;21.50;59.45;95831.34;5110585;28;20031;-31
2023/10/31 08:18:24;;;;;;;8.73;1.92;;;;;;;21.44;59.41;95849.19;5109929;28;20023;-31
2023/10/31 08:20:50;;;;;;;8.40;1.42;;;;;;;21.42;59.62;95851.69;5109596;28;20158;-31
2023/10/31 08:23:17;;;;;;;8.65;1.80;;;;;;;21.47;59.88;95848.16;5103709;28;20134;-33
2023/10/31 08:25:43;;;;;;;9.13;1.45;;;;;;;21.51;59.84;95854.16;5106550;28;20029;-31
2023/10/31 08:28:09;;;;;;;9.07;2.17;;;;;;;21.42;60.24;95854.44;5105278;28;20449;-31
2023/10/31 08:30:35;;;;;;;8.63;1.90;;;;;;;21.56;59.73;95858.88;5106245;28;20090;-31
2023/10/31 08:33:01;;;;;;;8.60;1.77;;;;;;;21.43;60.27;95864.22;5106458;28;20020;-31
2023/10/31 08:35:26;;;;;;;10.00;2.28;;;;;;;21.40;60.71;95856.97;5105145;28;20052;-31
2023/10/31 08:37:52;;;;;;;12.43;2.03;;;;;;;21.46;60.33;95865.97;5106238;28;20023;-32
2023/10/31 08:40:17;;;;;;;11.25;1.70;;;;;;;21.54;59.98;95872.44;5112493;28;20413;-31
2023/10/31 08:42:44;;;;;;;12.15;1.60;;;;;;;21.45;59.80;95873.50;5105723;28;20031;-31
2023/10/31 08:45:09;;;;;;;10.65;1.63;;;;;;;21.57;59.63;95885.19;5113063;28;20093;-32
2023/10/31 08:47:35;;;;;;;8.48;2.17;;;;;;;21.53;59.63;95887.47;5111719;28;20106;-31
2023/10/31 08:50:00;;;;;;;10.52;1.75;;;;;;;21.72;59.13;95888.38;5109140;28;20104;-31
2023/10/31 08:52:26;;;;;;;11.32;1.70;;;;;;;21.64;59.27;95887.41;5102578;28;20031;-33
2023/10/31 08:54:51;;;;;;;9.55;1.42;;;;;;;21.49;59.67;95892.53;5111666;28;20086;-31
2023/10/31 08:57:17;;;;;;;14.13;2.38;;;;;;;21.54;59.25;95902.78;5112966;28;20016;-31
2023/10/31 08:59:42;;;;;;;8.32;1.83;;;;;;;21.74;58.82;95894.13;5111269;28;20435;-31
2023/10/31 09:02:08;;;;;;;11.90;2.85;;;;;;;21.60;59.25;95891.72;5112672;28;20011;-31
2023/10/31 09:04:34;;;;;;;11.80;1.75;;;;;;;21.53;58.92;95893.00;5105127;28;20011;-31
2023/10/31 09:07:00;;;;;;;9.98;1.65;;;;;;;21.52;59.50;95897.75;5111547;28;20038;-31
2023/10/31 09:09:25;;;;;;;10.30;1.65;;;;;;;21.74;59.06;95898.91;5105680;28;20024;-32
2023/10/31 09:11:51;;;;;;;8.10;1.88;;;;;;;21.62;59.82;95889.94;5111477;28;20035;-31
2023/10/31 09:14:16;;;;;;;14.05;1.67;;;;;;;21.80;59.14;95902.34;5105471;28;20125;-31
2023/10/31 09:16:41;;;;;;;13.20;1.67;;;;;;;21.74;59.43;95896.13;5112198;28;20022;-32
2023/10/31 09:19:07;;;;;;;10.35;1.30;;;;;;;21.83;59.39;95906.84;5104320;28;20019;-31
2023/10/31 09:21:33;;;;;;;8.40;1.27;;;;;;;21.97;58.81;95900.22;5107939;28;20020;-32
2023/10/31 09:23:58;;;;;;;7.47;1.55;;;;;;;21.96;58.67;95900.72;5102482;28;20046;-31
2023/10/31 09:26:23;;;;;;;9.65;1.92;;;;;;;21.98;58.89;95903.72;5101805;28;20086;-31
2023/10/31 09:28:52;;;;;;;6.07;1.20;;;;;;;21.95;59.17;95911.03;5106311;28;20019;-32
2023/10/31 09:31:18;;;;;;;8.85;1.58;;;;;;;21.89;59.51;95910.31;5110526;28;20466;-31
2023/10/31 09:33:44;;;;;;;4.47;1.23;;;;;;;22.06;58.75;95908.19;5101959;28;20034;-32
2023/10/31 09:36:10;;;;;;;13.73;1.67;;;;;;;22.21;58.73;95913.34;5108817;28;20020;-32
2023/10/31 09:38:35;;;;;;;8.23;1.30;;;;;;;22.07;59.04;95914.47;5102454;28;20023;-31
2023/10/31 09:41:01;;;;;;;4.32;1.17;;;;;;;21.97;59.96;95924.31;5106664;28;20205;-32
2023/10/31 09:43:26;;;;;;;11.15;2.33;;;;;;;22.05;59.33;95906.69;5110963;28;20462;-31
2023/10/31 09:45:52;;;;;;;10.43;1.52;;;;;;;22.27;58.95;95922.31;5104883;28;20043;-31
2023/10/31 09:48:21;;;;;;;11.25;1.60;;;;;;;22.06;58.89;95932.28;5104789;28;20031;-31
2023/10/31 09:50:47;;;;;;;7.05;1.50;;;;;;;22.10;58.72;95930.00;5104071;28;20123;-31
2023/10/31 09:53:16;;;;;;;13.30;1.58;;;;;;;21.94;59.28;95933.63;5111603;28;20036;-31
2023/10/31 09:55:43;;;;;;;8.00;1.45;;;;;;;22.21;59.04;95929.91;5110493;28;20462;-31
2023/10/31 09:58:09;;;;;;;15.85;2.08;;;;;;;21.82;59.50;95936.47;5111738;28;20076;-31
2023/10/31 10:00:36;;;;;;;11.18;1.38;;;;;;;22.18;57.94;95936.47;5111550;28;20027;-31
2023/10/31 10:03:03;;;;;;;11.57;1.30;;;;;;;22.20;57.23;95944.97;5101393;28;20016;-31
2023/10/31 10:05:31;;;;;;;7.30;1.20;;;;;;;22.17;57.76;95951.53;5106997;28;20068;-31
2023/10/31 10:07:57;;;;;;;7.30;0.95;;;;;;;22.10;57.90;95958.38;5109473;28;20027;-31
2023/10/31 10:10:24;;;;;;;9.25;1.38;;;;;;;22.02;57.34;95965.69;5105361;28;20019;-31
2023/10/31 10:12:52;;;;;;;7.57;1.15;;;;;;;22.10;56.93;95957.63;5110876;28;20398;-32
2023/10/31 10:15:17;;;;;;;6.68;1.02;;;;;;;21.71;57.67;95963.38;5104057;28;20526;-31
2023/10/31 10:17:52;;;;;;;5.45;0.90;;;;;;;21.95;57.19;95973.78;5111379;28;20107;-32
2023/10/31 10:20:18;;;;;;;7.72;1.35;;;;;;;22.11;56.68;95967.41;5103252;28;20379;-31
2023/10/31 10:22:44;;;;;;;8.77;1.20;;;;;;;22.00;57.04;95961.97;5103952;28;20371;-31
2023/10/31 10:25:12;;;;;;;8.23;1.38;;;;;;;22.08;57.05;95960.16;5110163;28;20027;-32
2023/10/31 10:27:37;;;;;;;6.70;1.42;;;;;;;22.09;57.28;95961.66;5104362;28;20493;-31
2023/10/31 10:30:04;;;;;;;9.13;1.33;;;;;;;22.20;56.92;95962.31;5104318;28;20028;-31
2023/10/31 10:32:30;;;;;;;8.85;1.00;;;;;;;22.14;56.23;95958.06;5103675;28;20077;-31
2023/10/31 10:34:55;;;;;;;6.47;1.30;;;;;;;22.07;56.26;95953.88;5111307;28;20027;-31
2023/10/31 10:37:21;;;;;;;7.05;1.25;;;;;;;22.12;57.00;95955.84;5103328;28;20356;-31
2023/10/31 10:39:55;;;;;;;4.13;1.27;;;;;;;22.14;57.00;95955.31;5105554;28;20103;-31
2023/10/31 10:42:35;;;;;;;5.38;1.25;;;;;;;22.27;57.42;95957.47;5108185;28;20027;-31
2023/10/31 10:45:05;;;;;;;5.45;1.00;;;;;;;22.34;56.79;95956.94;5104672;28;20020;-31
2023/10/31 10:47:37;;;;;;;8.18;1.30;;;;;;;22.29;55.27;95947.41;5105629;28;20054;-31
2023/10/31 10:50:05;;;;;;;6.60;1.20;;;;;;;22.09;54.97;95950.59;5104067;28;20073;-31
2023/10/31 10:52:42;;;;;;;5.93;1.05;;;;;;;22.24;54.58;95939.94;5111816;28;20027;-31
2023/10/31 10:55:12;;;;;;;6.65;1.10;;;;;;;22.25;54.73;95935.16;5104898;28;20038;-31
2023/10/31 10:57:50;;;;;;;9.50;1.17;;;;;;;22.37;54.63;95931.03;5110730;28;20067;-31
2023/10/31 11:00:16;;;;;;;8.18;1.35;;;;;;;22.30;55.21;95937.13;5115033;28;20011;-31
2023/10/31 11:02:43;;;;;;;6.40;1.15;;;;;;;22.29;55.52;95938.38;5114201;28;20382;-32
2023/10/31 11:05:09;;;;;;;4.88;1.38;;;;;;;22.30;54.30;95937.13;5107466;28;20023;-31
2023/10/31 11:07:38;;;;;;;5.45;0.88;;;;;;;22.27;55.24;95927.84;5114844;28;20027;-31
2023/10/31 11:10:06;;;;;;;5.72;1.48;;;;;;;22.14;55.69;95924.94;5105314;28;20035;-32
2023/10/31 11:12:32;;;;;;;7.60;1.17;;;;;;;22.31;54.64;95930.31;5114899;28;20487;-31
2023/10/31 11:15:00;;;;;;;5.97;1.08;;;;;;;22.24;54.79;95928.88;5106524;28;20039;-31
2023/10/31 11:17:40;;;;;;;7.82;1.25;;;;;;;22.29;53.73;95930.84;5114805;28;20502;-31
2023/10/31 11:20:10;;;;;;;12.02;2.22;;;;;;;22.32;54.61;95929.81;5106840;28;20126;-31
2023/10/31 11:22:45;;;;;;;6.70;1.02;;;;;;;22.13;56.07;95926.94;5114647;28;20060;-31